Main page
METAR-TAF:

METAR-TAF

Airports :

Cognac, France

Cognac – Châteaubernard Air Base

latitude: 45-40N, longitude: 000-19W, elevation: 30 m

Current weather observation

The report was made 18 minutes ago, at 07:00 UTC
Wind 3 kt from the East
Temperature 4°C
Humidity 100%
Pressure 1012 hPa
Visibility: 0400 m
patches of fog

METAR: LFBG 220700Z AUTO 09003KT 1100 0400 R23/0450N BCFG VV/// 04/04 Q1012 BECMG 16015G25KT CAVOK

Time: 08:18 (07:18 UTC)

Forecast

The report was made 1 hour and 20 minutes ago, at 05:58 UTC
Forecast valid from 22 at 05 UTC to 23 at 03 UTC
Wind 7 kt from the Southeast
Visibility: 0800 m
fog
Becoming
from 22 at 08 UTC to 22 at 10 UTC
Wind 15 kt from the South/Southeast with gusts up to 25 kt
Visibility 10 km or more
no clouds below 1500 m and no cumulonimbus

TAF: LFBG 220558Z 2205/2303 13007KT 0800 FG VV/// BECMG 2208/2210 16015G25KT CAVOK

Weather observations and forecasts of more than 4000 airports (METAR and TAF reports).

The available stations are represented by yellow and red dots on the map.

Hover mouse over dot to see the name of the station.

Then click to see weather observations and forecasts.

To change the map : click on the green buttons with a black cross to zoom in, on the green button with a dash to zoom out, or on the green arrows for adjacent maps.


METAR-TAF: